Time;durP1;ratioP1;P1;durP2;ratioP2;P2;SDS_P1;SDS_P2;PMS_P1;PMS_P2;Temp;Humidity;BMP_temperature;BMP_pressure;BME280_temperature;BME280_humidity;BME280_pressure;Samples;Min_cycle;Max_cycle;Signal;HPM_P1;HPM_P2
2022/12/14 00:00:31;;;;;;;17.45;8.43;;;;;;;-2.36;73.30;100069.03;5026757;28;20107;-59
2022/12/14 00:02:57;;;;;;;15.15;7.95;;;;;;;-2.37;73.03;100073.22;5028010;28;20029;-59
2022/12/14 00:05:22;;;;;;;15.85;8.63;;;;;;;-2.41;73.73;100068.03;5020933;28;20541;-60
2022/12/14 00:07:47;;;;;;;17.02;7.88;;;;;;;-2.42;73.20;100068.84;5024805;28;20087;-63
2022/12/14 00:10:13;;;;;;;16.58;8.45;;;;;;;-2.42;73.49;100066.28;5027615;28;20047;-63
2022/12/14 00:12:38;;;;;;;17.52;9.00;;;;;;;-2.44;73.10;100063.69;5032215;28;20041;-61
2022/12/14 00:15:05;;;;;;;15.82;8.45;;;;;;;-2.43;73.43;100060.38;5030346;28;20548;-66
2022/12/14 00:17:30;;;;;;;19.85;8.93;;;;;;;-2.42;73.18;100059.56;5034537;28;20124;-67
2022/12/14 00:19:56;;;;;;;18.77;8.93;;;;;;;-2.43;72.99;100047.72;5030333;28;20049;-67
2022/12/14 00:22:21;;;;;;;18.25;8.70;;;;;;;-2.42;72.77;100043.53;5030578;28;20038;-65
2022/12/14 00:24:46;;;;;;;17.70;8.07;;;;;;;-2.42;73.35;100041.00;5031764;28;20481;-67
2022/12/14 00:27:12;;;;;;;20.60;7.53;;;;;;;-2.49;73.59;100039.06;5032830;28;20435;-66
2022/12/14 00:29:39;;;;;;;19.73;9.07;;;;;;;-2.53;73.63;100037.28;5029498;28;20071;-67
2022/12/14 00:32:04;;;;;;;15.70;7.40;;;;;;;-2.59;73.87;100042.13;5036461;28;20053;-67
2022/12/14 00:34:30;;;;;;;15.38;7.63;;;;;;;-2.67;74.17;100049.47;5029234;28;20051;-60
2022/12/14 00:36:56;;;;;;;16.63;7.63;;;;;;;-2.71;74.26;100053.56;5051547;28;20044;-59
2022/12/14 00:39:22;;;;;;;16.45;7.47;;;;;;;-2.75;74.43;100054.28;5051981;28;20612;-60
2022/12/14 00:41:47;;;;;;;14.23;7.85;;;;;;;-2.76;74.75;100054.22;5051209;28;20033;-59
2022/12/14 00:44:12;;;;;;;17.00;7.45;;;;;;;-2.75;74.80;100048.38;5046493;28;20075;-59
2022/12/14 00:46:38;;;;;;;15.68;7.72;;;;;;;-2.73;74.68;100045.06;5040047;28;20053;-59
2022/12/14 00:49:03;;;;;;;20.13;8.07;;;;;;;-2.70;74.27;100037.59;5046750;28;20051;-64
2022/12/14 00:51:29;;;;;;;14.90;7.90;;;;;;;-2.68;74.24;100033.41;5050944;28;20102;-60
2022/12/14 00:53:54;;;;;;;15.95;7.38;;;;;;;-2.63;73.92;100041.19;5052482;28;20040;-60
2022/12/14 00:56:19;;;;;;;14.52;8.02;;;;;;;-2.60;73.82;100022.72;5050087;28;20044;-61
2022/12/14 00:58:52;;;;;;;15.77;7.60;;;;;;;-2.56;73.80;100022.84;5047864;28;20604;-61
2022/12/14 01:01:19;;;;;;;18.30;8.57;;;;;;;-2.53;73.94;100022.09;5054537;28;20136;-61
2022/12/14 01:03:44;;;;;;;17.10;7.63;;;;;;;-2.51;73.56;100013.75;5053313;28;20514;-61
2022/12/14 01:06:21;;;;;;;15.02;7.80;;;;;;;-2.49;74.30;100012.09;5055198;28;20029;-60
2022/12/14 01:08:47;;;;;;;15.68;7.28;;;;;;;-2.47;74.31;100007.94;5055001;28;20032;-59
2022/12/14 01:11:13;;;;;;;16.60;8.95;;;;;;;-2.42;74.28;100010.63;5054938;28;20040;-60
2022/12/14 01:13:39;;;;;;;19.17;7.65;;;;;;;-2.42;73.76;100006.44;5055751;28;20393;-60
2022/12/14 01:16:13;;;;;;;14.77;7.80;;;;;;;-2.39;74.12;100008.19;5053667;28;20048;-60
2022/12/14 01:18:40;;;;;;;12.60;7.13;;;;;;;-2.36;74.28;100010.81;5050982;28;20579;-59
2022/12/14 01:21:16;;;;;;;14.85;7.55;;;;;;;-2.35;74.30;99999.91;5050076;28;20111;-60
2022/12/14 01:23:44;;;;;;;17.98;9.25;;;;;;;-2.33;74.01;99988.16;5053545;28;20056;-59
2022/12/14 01:26:11;;;;;;;11.95;7.38;;;;;;;-2.32;73.98;99982.28;5052831;28;20047;-60
2022/12/14 01:28:36;;;;;;;13.05;7.28;;;;;;;-2.33;73.52;99981.41;5054563;28;20895;-59
2022/12/14 01:31:07;;;;;;;13.48;7.15;;;;;;;-2.32;73.92;99984.81;5049939;28;20036;-59
2022/12/14 01:33:33;;;;;;;15.73;8.30;;;;;;;-2.32;74.33;99980.56;5048408;28;20497;-59
2022/12/14 01:36:06;;;;;;;17.13;7.70;;;;;;;-2.31;74.35;99976.38;5055246;28;20044;-60
2022/12/14 01:38:32;;;;;;;15.32;7.25;;;;;;;-2.31;74.37;99978.91;5052846;28;20177;-60
2022/12/14 01:40:58;;;;;;;14.07;7.75;;;;;;;-2.33;74.61;99968.75;5045668;28;20972;-60
2022/12/14 01:43:24;;;;;;;12.93;7.10;;;;;;;-2.31;74.71;99966.25;5041469;28;20040;-60
2022/12/14 01:45:54;;;;;;;12.60;7.00;;;;;;;-2.33;75.11;99963.69;5032046;28;20038;-60
2022/12/14 01:48:21;;;;;;;16.00;6.90;;;;;;;-2.35;74.76;99960.25;5030795;28;20095;-60
2022/12/14 01:50:46;;;;;;;14.98;6.60;;;;;;;-2.36;74.80;99953.50;5030797;28;20031;-60
2022/12/14 01:53:21;;;;;;;11.45;6.63;;;;;;;-2.37;74.61;99954.28;5046616;28;20033;-60
2022/12/14 01:55:53;;;;;;;12.27;6.18;;;;;;;-2.40;74.82;99959.25;5056427;28;20040;-60
2022/12/14 01:58:24;;;;;;;12.82;6.80;;;;;;;-2.42;74.46;99958.38;5056104;28;20036;-59
2022/12/14 02:00:53;;;;;;;15.00;6.55;;;;;;;-2.46;74.62;99953.16;5053580;28;20036;-60
2022/12/14 02:03:31;;;;;;;14.63;6.70;;;;;;;-2.45;74.63;99959.94;5050745;28;20520;-59
2022/12/14 02:06:10;;;;;;;13.45;7.18;;;;;;;-2.49;74.73;99951.38;5045651;28;20031;-62
2022/12/14 02:08:37;;;;;;;15.05;7.50;;;;;;;-2.50;75.05;99949.66;5049062;28;20044;-60
2022/12/14 02:11:03;;;;;;;13.90;7.13;;;;;;;-2.55;74.86;99943.63;5043872;28;20060;-60
2022/12/14 02:13:35;;;;;;;10.68;6.18;;;;;;;-2.59;75.30;99934.25;5051765;28;20144;-60
2022/12/14 02:16:01;;;;;;;12.27;6.78;;;;;;;-2.64;75.57;99936.59;5047819;28;20041;-60
2022/12/14 02:18:29;;;;;;;13.57;6.30;;;;;;;-2.70;75.61;99931.34;5055026;28;20048;-60
2022/12/14 02:21:20;;;;;;;11.38;6.38;;;;;;;-2.75;75.72;99930.38;5053222;28;20038;-60
2022/12/14 02:24:16;;;;;;;14.80;6.13;;;;;;;-2.78;75.92;99924.34;5023188;28;20135;-60
2022/12/14 02:26:51;;;;;;;13.82;7.57;;;;;;;-2.79;75.48;99917.56;5054573;28;20048;-60
2022/12/14 02:29:31;;;;;;;12.45;6.47;;;;;;;-2.80;75.56;99909.13;5053316;28;20037;-60
2022/12/14 02:32:02;;;;;;;13.30;6.57;;;;;;;-2.77;75.49;99908.38;5054590;28;20406;-62
2022/12/14 02:34:48;;;;;;;14.70;7.60;;;;;;;-2.76;74.65;99910.94;5054954;28;20075;-60
2022/12/14 02:37:24;;;;;;;14.10;6.50;;;;;;;-2.75;74.61;99900.03;5040614;28;20128;-60
2022/12/14 02:40:00;;;;;;;13.02;6.30;;;;;;;-2.76;74.74;99899.97;5040923;28;20077;-60
2022/12/14 02:43:10;;;;;;;14.35;7.45;;;;;;;-2.80;74.62;99893.13;5048658;28;20052;-60
2022/12/14 02:45:49;;;;;;;10.52;5.80;;;;;;;-2.82;74.72;99889.66;5034081;28;20044;-60
2022/12/14 02:48:23;;;;;;;10.70;5.25;;;;;;;-2.85;75.36;99895.47;5055358;28;20067;-60
2022/12/14 02:51:35;;;;;;;11.95;5.70;;;;;;;-2.83;75.19;99890.50;5052316;28;20782;-60
2022/12/14 02:54:12;;;;;;;10.07;6.35;;;;;;;-2.81;74.83;99887.19;5032592;28;20048;-59
2022/12/14 02:56:50;;;;;;;13.38;5.88;;;;;;;-2.78;74.94;99873.78;5056192;28;20397;-58
2022/12/14 02:59:17;;;;;;;12.63;6.03;;;;;;;-2.73;74.65;99872.22;5050671;28;20639;-59
2022/12/14 03:01:45;;;;;;;11.13;5.82;;;;;;;-2.70;74.50;99883.31;5050959;28;20079;-59
2022/12/14 03:04:11;;;;;;;10.35;5.85;;;;;;;-2.67;74.64;99890.13;5054925;28;20747;-59
2022/12/14 03:06:36;;;;;;;10.68;5.65;;;;;;;-2.63;74.63;99884.34;5051473;28;20131;-59
2022/12/14 03:09:09;;;;;;;14.85;6.47;;;;;;;-2.58;74.68;99861.72;5048710;28;20024;-59
2022/12/14 03:11:47;;;;;;;10.52;6.00;;;;;;;-2.54;74.56;99854.28;5045929;28;20040;-59
2022/12/14 03:14:28;;;;;;;12.85;6.32;;;;;;;-2.44;73.67;99850.34;5050647;28;20036;-59
2022/12/14 03:16:58;;;;;;;12.48;5.90;;;;;;;-2.43;73.62;99857.97;5055730;28;20068;-68
2022/12/14 03:19:52;;;;;;;16.40;6.78;;;;;;;-2.40;73.85;99858.03;5043297;28;20076;-67
2022/12/14 03:22:40;;;;;;;8.98;5.20;;;;;;;-2.40;73.67;99852.13;5037209;28;20146;-69
2022/12/14 03:25:15;;;;;;;12.05;6.20;;;;;;;-2.38;73.86;99850.50;5036104;28;20037;-67
2022/12/14 03:27:49;;;;;;;10.77;5.72;;;;;;;-2.40;73.62;99845.41;5035238;28;20800;-69
2022/12/14 03:30:17;;;;;;;9.38;5.30;;;;;;;-2.38;74.11;99853.03;5036562;28;20101;-70
2022/12/14 03:32:58;;;;;;;12.65;5.75;;;;;;;-2.38;74.23;99853.03;5051365;28;20047;-61
2022/12/14 03:35:41;;;;;;;11.35;5.28;;;;;;;-2.38;74.32;99851.34;5049591;28;20044;-60
2022/12/14 03:38:33;;;;;;;11.18;5.82;;;;;;;-2.34;74.65;99844.69;5053295;28;20113;-60
2022/12/14 03:41:19;;;;;;;12.60;6.45;;;;;;;-2.30;74.59;99851.56;5039506;28;20037;-60
2022/12/14 03:44:09;;;;;;;10.35;5.68;;;;;;;-2.28;73.87;99848.28;5053698;28;20599;-60
2022/12/14 03:47:08;;;;;;;11.35;5.38;;;;;;;-2.24;74.55;99850.09;5047603;28;20083;-60
2022/12/14 03:49:45;;;;;;;14.35;5.80;;;;;;;-2.21;73.96;99846.78;5048417;28;20084;-60
2022/12/14 03:52:48;;;;;;;12.25;5.47;;;;;;;-2.18;73.78;99854.44;5054250;28;20041;-60
2022/12/14 03:55:30;;;;;;;10.00;4.88;;;;;;;-2.16;74.60;99858.72;5047330;28;20098;-60
2022/12/14 03:58:20;;;;;;;10.90;5.22;;;;;;;-2.15;73.78;99857.06;5049767;28;20033;-60
2022/12/14 04:01:04;;;;;;;8.98;5.50;;;;;;;-2.15;73.89;99855.41;5044834;28;20072;-60
2022/12/14 04:03:47;;;;;;;13.02;6.57;;;;;;;-2.11;74.10;99857.19;5044771;28;20075;-60
2022/12/14 04:06:22;;;;;;;10.80;6.03;;;;;;;-2.09;74.08;99849.63;5045113;28;20140;-60
2022/12/14 04:08:56;;;;;;;8.60;4.57;;;;;;;-2.08;73.44;99849.66;5045190;28;20225;-59
2022/12/14 04:20:23;;;;;;;9.55;5.20;;;;;;;-2.06;74.12;99840.44;5046284;28;20087;-59
2022/12/14 04:22:56;;;;;;;6.80;4.45;;;;;;;-2.04;73.83;99837.94;5049541;28;20044;-59
2022/12/14 04:31:08;;;;;;;12.95;6.88;;;;;;;-2.02;73.19;99838.84;5045773;28;20048;-63
2022/12/14 04:33:48;;;;;;;10.88;5.80;;;;;;;-1.98;73.52;99832.19;5045528;28;20079;-59
2022/12/14 04:36:22;;;;;;;9.65;5.75;;;;;;;-1.96;73.46;99825.47;5054744;28;20036;-58
2022/12/14 04:38:52;;;;;;;9.40;5.70;;;;;;;-1.94;73.08;99824.72;5054095;28;20107;-59
2022/12/14 04:41:22;;;;;;;13.98;6.30;;;;;;;-1.93;73.64;99813.75;5032437;28;20052;-59
2022/12/14 04:43:52;;;;;;;11.85;5.38;;;;;;;-1.92;74.19;99818.03;5033345;28;20132;-59
2022/12/14 04:46:23;;;;;;;10.30;6.03;;;;;;;-1.90;73.46;99811.31;5032160;28;20048;-58
2022/12/14 04:49:06;;;;;;;13.48;5.85;;;;;;;-1.89;73.44;99810.50;5034474;28;20119;-60
2022/12/14 04:51:37;;;;;;;10.43;5.72;;;;;;;-1.87;73.48;99800.41;5030114;28;20036;-59
2022/12/14 04:54:25;;;;;;;12.48;6.43;;;;;;;-1.86;73.48;99799.59;5035657;28;20412;-60
2022/12/14 04:57:09;;;;;;;16.15;7.10;;;;;;;-1.87;73.60;99786.06;5027000;28;20230;-59
2022/12/14 04:59:36;;;;;;;11.60;5.97;;;;;;;-1.86;73.52;99795.38;5053522;28;20036;-60
2022/12/14 05:02:32;;;;;;;11.88;6.38;;;;;;;-1.85;73.45;99786.97;5050571;28;20779;-59
2022/12/14 05:05:10;;;;;;;12.45;6.13;;;;;;;-1.82;73.43;99786.19;5044330;28;20103;-59
2022/12/14 05:07:54;;;;;;;12.57;7.32;;;;;;;-1.82;73.94;99773.53;5045837;28;20089;-59
2022/12/14 05:10:34;;;;;;;11.65;6.22;;;;;;;-1.80;73.54;99774.41;5046976;28;20056;-58
2022/12/14 05:13:11;;;;;;;12.00;6.82;;;;;;;-1.79;73.43;99779.50;5056577;28;20037;-59
2022/12/14 05:15:44;;;;;;;10.35;5.72;;;;;;;-1.77;73.30;99784.63;5045698;28;20119;-59
2022/12/14 05:18:10;;;;;;;11.32;6.13;;;;;;;-1.76;73.32;99768.63;5071370;28;20025;-58
2022/12/14 05:20:35;;;;;;;10.30;5.22;;;;;;;-1.74;73.07;99764.44;5054288;28;20078;-64
2022/12/14 05:23:01;;;;;;;12.48;7.78;;;;;;;-1.74;73.08;99760.22;5036048;28;20048;-65
2022/12/14 05:25:26;;;;;;;14.70;7.10;;;;;;;-1.74;72.64;99756.84;5038080;28;20131;-65
2022/12/14 05:27:51;;;;;;;11.20;6.55;;;;;;;-1.72;72.52;99747.59;5031802;28;20100;-64
2022/12/14 05:30:17;;;;;;;12.48;6.15;;;;;;;-1.72;72.51;99743.38;5036208;28;20040;-65
2022/12/14 05:32:42;;;;;;;12.75;6.53;;;;;;;-1.72;72.45;99735.78;5036087;28;20021;-64
2022/12/14 05:35:12;;;;;;;11.55;6.40;;;;;;;-1.71;72.86;99737.50;5034895;28;20062;-64
2022/12/14 05:37:39;;;;;;;13.82;7.35;;;;;;;-1.70;72.24;99733.31;5033243;28;20033;-68
2022/12/14 05:40:05;;;;;;;11.48;6.20;;;;;;;-1.68;72.55;99729.97;5020846;28;20052;-61
2022/12/14 05:42:30;;;;;;;14.52;7.45;;;;;;;-1.66;72.51;99728.34;5039019;28;20037;-67
2022/12/14 05:44:56;;;;;;;12.82;6.25;;;;;;;-1.66;72.66;99718.19;5055987;28;20036;-62
2022/12/14 05:47:22;;;;;;;10.30;5.80;;;;;;;-1.63;72.76;99727.53;5055415;28;20040;-60
2022/12/14 05:49:47;;;;;;;18.35;11.88;;;;;;;-1.62;72.55;99716.59;5056049;28;20409;-69
2022/12/14 05:52:13;;;;;;;13.43;8.93;;;;;;;-1.62;72.25;99717.47;5047072;28;20810;-65
2022/12/14 05:54:38;;;;;;;18.73;10.40;;;;;;;-1.62;72.26;99714.94;5036598;28;20044;-65
2022/12/14 05:57:05;;;;;;;13.95;11.00;;;;;;;-1.62;72.47;99714.94;5032521;28;20029;-64
2022/12/14 05:59:31;;;;;;;14.40;8.18;;;;;;;-1.61;72.79;99710.72;5052792;28;20034;-59
2022/12/14 06:01:57;;;;;;;23.33;12.20;;;;;;;-1.60;72.58;99712.41;5053662;28;20036;-64
2022/12/14 06:04:22;;;;;;;17.60;9.35;;;;;;;-1.59;73.05;99709.94;5047815;28;20714;-63
2022/12/14 06:06:49;;;;;;;20.65;9.60;;;;;;;-1.57;72.81;99707.41;5031827;28;20033;-62
2022/12/14 06:09:15;;;;;;;21.02;11.68;;;;;;;-1.57;72.39;99713.34;5034825;28;20155;-68
2022/12/14 06:11:42;;;;;;;15.88;8.60;;;;;;;-1.54;72.85;99710.88;5032123;28;20021;-70
2022/12/14 06:14:08;;;;;;;15.23;7.75;;;;;;;-1.53;72.46;99711.75;5052573;28;20037;-71
2022/12/14 06:16:34;;;;;;;26.23;14.57;;;;;;;-1.52;72.85;99710.91;5043996;28;20044;-70
2022/12/14 06:19:03;;;;;;;34.35;18.35;;;;;;;-1.53;72.74;99715.13;5042969;28;20028;-69
2022/12/14 06:21:32;;;;;;;24.55;12.75;;;;;;;-1.51;72.38;99708.41;5049605;28;20040;-70
2022/12/14 06:23:58;;;;;;;14.65;9.10;;;;;;;-1.50;71.70;99709.28;5038063;28;20024;-69
2022/12/14 06:26:26;;;;;;;10.93;6.90;;;;;;;-1.49;71.72;99715.22;5054481;28;20148;-62
2022/12/14 06:28:51;;;;;;;10.55;6.43;;;;;;;-1.48;71.83;99717.75;5050961;28;20037;-62
2022/12/14 06:31:25;;;;;;;15.50;6.95;;;;;;;-1.48;71.87;99717.75;5052429;28;20959;-69
2022/12/14 06:33:54;;;;;;;12.23;6.75;;;;;;;-1.48;71.88;99730.44;5053525;28;20056;-70
2022/12/14 06:36:25;;;;;;;11.55;6.57;;;;;;;-1.45;71.57;99727.09;5054482;28;20028;-69
2022/12/14 06:38:51;;;;;;;13.07;7.10;;;;;;;-1.45;71.93;99725.44;5057568;28;20113;-70
2022/12/14 06:41:18;;;;;;;11.85;6.13;;;;;;;-1.44;71.42;99717.03;5051542;28;20574;-70
2022/12/14 06:43:50;;;;;;;21.00;12.02;;;;;;;-1.45;72.17;99720.38;5052687;28;20036;-70
2022/12/14 06:46:18;;;;;;;71.60;40.00;;;;;;;-1.42;72.17;99730.56;5051167;28;20060;-69
2022/12/14 06:48:48;;;;;;;30.65;20.40;;;;;;;-1.41;71.61;99731.44;5051955;28;20043;-69
2022/12/14 06:51:14;;;;;;;23.80;17.83;;;;;;;-1.40;71.62;99726.38;5051765;28;20489;-69
2022/12/14 06:53:39;;;;;;;18.52;10.95;;;;;;;-1.38;71.85;99729.84;5050477;28;20106;-68
2022/12/14 06:56:10;;;;;;;11.38;7.47;;;;;;;-1.37;71.59;99728.16;5053675;28;20037;-69
2022/12/14 06:58:35;;;;;;;15.55;8.07;;;;;;;-1.37;71.93;99731.53;5052160;28;20049;-69
2022/12/14 07:01:06;;;;;;;10.98;6.05;;;;;;;-1.36;71.79;99724.78;5052077;28;21008;-69
2022/12/14 07:03:32;;;;;;;13.25;6.18;;;;;;;-1.37;71.92;99718.84;5051363;28;20602;-70
2022/12/14 07:05:58;;;;;;;12.27;6.07;;;;;;;-1.35;71.44;99723.97;5051761;28;20036;-69
2022/12/14 07:08:25;;;;;;;12.05;5.65;;;;;;;-1.34;72.12;99730.75;5049469;28;20037;-70
2022/12/14 07:10:51;;;;;;;13.18;6.55;;;;;;;-1.34;71.27;99730.75;5053213;28;20034;-65
2022/12/14 07:13:16;;;;;;;14.48;6.97;;;;;;;-1.32;71.78;99736.72;5052606;28;20040;-61
2022/12/14 07:15:42;;;;;;;14.68;7.63;;;;;;;-1.31;71.60;99733.38;5048507;28;20401;-62
2022/12/14 07:18:07;;;;;;;11.27;5.97;;;;;;;-1.31;71.15;99729.13;5043900;28;20119;-62
2022/12/14 07:20:32;;;;;;;14.13;8.05;;;;;;;-1.31;71.41;99724.06;5033101;28;20128;-62
2022/12/14 07:22:58;;;;;;;15.43;7.40;;;;;;;-1.30;71.49;99735.91;5036561;28;20045;-62
2022/12/14 07:25:23;;;;;;;12.88;7.10;;;;;;;-1.30;71.72;99735.91;5035479;28;20418;-61
2022/12/14 07:27:50;;;;;;;13.85;7.22;;;;;;;-1.29;72.12;99731.72;5029637;28;20114;-60
2022/12/14 07:30:15;;;;;;;20.95;8.20;;;;;;;-1.28;72.09;99730.91;5028702;28;20029;-60
2022/12/14 07:32:41;;;;;;;14.02;6.75;;;;;;;-1.28;71.64;99726.66;5030130;28;20059;-60
2022/12/14 07:35:06;;;;;;;17.50;9.05;;;;;;;-1.27;71.78;99730.06;5031307;28;20052;-60
2022/12/14 07:37:32;;;;;;;17.63;8.75;;;;;;;-1.26;71.84;99744.44;5033163;28;20516;-61
2022/12/14 07:39:57;;;;;;;18.52;10.43;;;;;;;-1.23;72.01;99741.97;5031948;28;20647;-60
2022/12/14 07:42:23;;;;;;;21.20;10.35;;;;;;;-1.23;71.80;99742.84;5031611;28;20136;-60
2022/12/14 07:44:48;;;;;;;15.65;7.35;;;;;;;-1.24;71.78;99741.13;5030291;28;20119;-60
2022/12/14 07:47:14;;;;;;;18.08;7.93;;;;;;;-1.21;71.66;99745.41;5029396;28;20048;-61
2022/12/14 07:49:39;;;;;;;17.85;9.15;;;;;;;-1.21;71.97;99738.66;5031937;28;20037;-62
2022/12/14 07:52:05;;;;;;;22.35;9.45;;;;;;;-1.18;71.81;99742.94;5032615;28;20037;-62
2022/12/14 07:54:30;;;;;;;20.45;10.77;;;;;;;-1.14;71.99;99737.13;5030552;28;20067;-60
2022/12/14 07:56:55;;;;;;;21.75;10.02;;;;;;;-1.11;71.41;99730.44;5035186;28;20025;-60
2022/12/14 07:59:21;;;;;;;18.17;8.98;;;;;;;-1.08;71.06;99729.66;5034932;28;20120;-60
2022/12/14 08:01:46;;;;;;;22.25;10.63;;;;;;;-1.04;70.95;99731.41;5035926;28;20134;-60
2022/12/14 08:04:15;;;;;;;20.55;10.27;;;;;;;-0.99;70.84;99730.66;5028436;28;20033;-60
2022/12/14 08:06:40;;;;;;;23.67;10.18;;;;;;;-0.96;71.12;99733.28;5030732;28;20120;-60
2022/12/14 08:09:08;;;;;;;23.33;10.90;;;;;;;-0.92;70.47;99734.19;5033590;28;20035;-60
2022/12/14 08:11:35;;;;;;;24.20;9.75;;;;;;;-0.89;70.47;99726.66;5035839;28;20067;-60
2022/12/14 08:14:03;;;;;;;20.55;7.55;;;;;;;-0.84;70.12;99725.09;5033905;28;20029;-59
2022/12/14 08:16:29;;;;;;;19.40;7.57;;;;;;;-0.85;69.81;99725.91;5066780;28;20413;-60
2022/12/14 08:18:56;;;;;;;16.80;6.93;;;;;;;-0.86;69.84;99718.25;5032971;28;20052;-61
2022/12/14 08:21:22;;;;;;;14.45;7.95;;;;;;;-0.85;70.14;99717.41;5033532;28;20059;-64
2022/12/14 08:23:49;;;;;;;13.63;6.95;;;;;;;-0.86;70.36;99713.16;5035357;28;20738;-64
2022/12/14 08:26:15;;;;;;;15.85;7.45;;;;;;;-0.86;70.71;99721.63;5035740;28;20103;-64
2022/12/14 08:28:40;;;;;;;17.08;7.57;;;;;;;-0.83;70.80;99719.16;5046157;28;20047;-66
2022/12/14 08:31:12;;;;;;;17.00;8.15;;;;;;;-0.80;70.76;99719.22;5054761;28;20025;-65
2022/12/14 08:33:38;;;;;;;16.70;9.55;;;;;;;-0.77;70.69;99721.81;5055262;28;20052;-65
2022/12/14 08:36:08;;;;;;;15.45;7.78;;;;;;;-0.72;70.41;99714.31;5048216;28;20119;-64
2022/12/14 08:38:34;;;;;;;18.75;10.57;;;;;;;-0.68;70.17;99723.69;5048580;28;20487;-64
2022/12/14 08:41:05;;;;;;;17.73;8.43;;;;;;;-0.64;69.52;99717.84;5047186;28;20040;-65
2022/12/14 08:43:30;;;;;;;17.17;7.63;;;;;;;-0.64;69.44;99717.84;5053307;28;20037;-64
2022/12/14 08:45:56;;;;;;;15.18;8.13;;;;;;;-0.65;69.32;99714.44;5050965;28;21834;-65
2022/12/14 08:48:22;;;;;;;16.52;7.43;;;;;;;-0.59;69.11;99716.25;5045632;28;20067;-64
2022/12/14 08:50:47;;;;;;;15.38;7.88;;;;;;;-0.58;69.84;99710.34;5032535;28;20052;-65
2022/12/14 08:53:13;;;;;;;15.75;7.45;;;;;;;-0.55;69.67;99720.56;5051303;28;20044;-65
2022/12/14 08:55:38;;;;;;;15.90;7.78;;;;;;;-0.51;69.12;99719.81;5052411;28;20097;-65
2022/12/14 08:58:03;;;;;;;13.48;7.35;;;;;;;-0.46;69.59;99733.44;5040559;28;20128;-65
2022/12/14 09:00:29;;;;;;;16.05;9.32;;;;;;;-0.42;69.54;99730.97;5033036;28;20080;-66
2022/12/14 09:02:54;;;;;;;21.90;10.85;;;;;;;-0.40;69.65;99724.25;5029369;28;20567;-66
2022/12/14 09:05:20;;;;;;;20.42;11.02;;;;;;;-0.36;69.03;99726.84;5025079;28;20406;-66
2022/12/14 09:07:45;;;;;;;16.70;9.95;;;;;;;-0.35;69.38;99718.38;5028843;28;20032;-65
2022/12/14 09:10:11;;;;;;;16.30;10.13;;;;;;;-0.31;69.36;99720.16;5029090;28;20071;-65
2022/12/14 09:12:38;;;;;;;16.80;7.93;;;;;;;-0.25;68.82;99730.44;5034412;28;20810;-66
2022/12/14 09:15:04;;;;;;;15.85;9.48;;;;;;;-0.25;69.25;99743.13;5029056;28;20031;-66
2022/12/14 09:17:29;;;;;;;17.05;9.00;;;;;;;-0.28;69.93;99736.31;5030065;28;20044;-66
2022/12/14 09:19:56;;;;;;;14.85;8.55;;;;;;;-0.29;70.29;99746.44;5029456;28;20033;-66
2022/12/14 09:22:22;;;;;;;15.70;8.63;;;;;;;-0.31;70.77;99758.25;5029786;28;20033;-65
2022/12/14 09:24:49;;;;;;;15.88;8.95;;;;;;;-0.29;70.53;99754.03;5030983;28;20091;-64
2022/12/14 09:27:15;;;;;;;19.23;10.73;;;;;;;-0.22;70.46;99753.34;5035780;28;20120;-66
2022/12/14 09:29:40;;;;;;;19.00;10.35;;;;;;;-0.23;71.51;99759.22;5034602;28;20547;-65
2022/12/14 09:32:06;;;;;;;24.70;9.85;;;;;;;-0.26;71.99;99754.97;5038412;28;20041;-65
2022/12/14 09:34:31;;;;;;;17.48;9.00;;;;;;;-0.21;72.30;99755.88;5039044;28;20815;-65
2022/12/14 09:36:57;;;;;;;17.88;9.60;;;;;;;-0.19;72.56;99763.56;5038156;28;20041;-65
2022/12/14 09:39:23;;;;;;;21.15;11.15;;;;;;;-0.11;72.41;99765.41;5035081;28;20045;-65
2022/12/14 09:42:05;;;;;;;20.92;11.82;;;;;;;-0.00;72.22;99770.66;5033700;28;20037;-66
2022/12/14 09:45:01;;;;;;;20.08;10.73;;;;;;;-0.01;72.91;99772.38;5036276;28;20223;-65
2022/12/14 09:47:36;;;;;;;20.10;9.90;;;;;;;0.01;72.67;99775.78;5051588;28;20040;-65
2022/12/14 09:50:11;;;;;;;17.80;10.75;;;;;;;-0.04;73.27;99782.47;5053167;28;20131;-66
2022/12/14 09:52:47;;;;;;;19.23;11.85;;;;;;;-0.01;73.62;99786.75;5055240;28;20147;-65
2022/12/14 09:55:18;;;;;;;25.05;13.50;;;;;;;0.02;73.86;99784.25;5044008;28;20979;-65
2022/12/14 09:57:47;;;;;;;31.80;15.88;;;;;;;0.13;74.18;99782.75;5032823;28;20041;-66
2022/12/14 10:00:18;;;;;;;42.05;20.25;;;;;;;0.17;74.75;99782.81;5026653;28;20045;-65
2022/12/14 10:02:57;;;;;;;41.20;19.15;;;;;;;0.22;74.70;99775.28;5033749;28;20036;-65
2022/12/14 10:05:51;;;;;;;52.45;23.40;;;;;;;0.21;76.25;99780.34;5034191;28;21062;-65
2022/12/14 10:08:37;;;;;;;21.45;12.75;;;;;;;0.18;76.75;99778.59;5051103;28;20037;-65
2022/12/14 10:11:20;;;;;;;20.52;11.57;;;;;;;0.17;77.24;99780.28;5049446;28;20049;-66
2022/12/14 10:14:00;;;;;;;20.58;12.93;;;;;;;0.20;78.70;99784.59;5051295;28;20559;-65
2022/12/14 10:16:35;;;;;;;18.92;11.35;;;;;;;0.21;78.73;99782.88;5052605;28;20123;-65
2022/12/14 10:19:19;;;;;;;20.23;10.45;;;;;;;0.22;79.90;99782.06;5049516;28;20163;-65
2022/12/14 10:21:49;;;;;;;21.90;11.80;;;;;;;0.23;80.44;99787.19;5050072;28;20087;-65
2022/12/14 10:24:23;;;;;;;19.40;11.68;;;;;;;0.24;80.92;99788.00;5051978;28;20091;-64
2022/12/14 10:26:53;;;;;;;21.85;12.15;;;;;;;0.19;81.29;99793.03;5058910;28;20496;-64
2022/12/14 10:29:28;;;;;;;18.38;10.98;;;;;;;0.10;81.15;99793.72;5037132;28;20057;-65
2022/12/14 10:31:54;;;;;;;19.73;10.55;;;;;;;0.03;81.88;99793.56;5054903;28;20463;-66
2022/12/14 10:34:23;;;;;;;17.65;11.45;;;;;;;0.00;82.32;99796.91;5044988;28;20510;-65
2022/12/14 10:36:55;;;;;;;20.10;11.70;;;;;;;-0.08;82.49;99793.38;5028076;28;20665;-62
2022/12/14 10:39:40;;;;;;;20.75;10.68;;;;;;;-0.13;82.13;99787.38;5030759;28;20040;-62
2022/12/14 10:42:41;;;;;;;19.65;11.50;;;;;;;-0.09;82.85;99778.09;5036864;28;20043;-62
2022/12/14 10:45:18;;;;;;;23.58;11.80;;;;;;;-0.15;82.46;99767.84;5037592;28;20032;-62
2022/12/14 10:47:48;;;;;;;20.85;11.18;;;;;;;-0.14;83.29;99762.81;5037449;28;20069;-62
2022/12/14 10:50:21;;;;;;;27.98;12.60;;;;;;;-0.10;84.12;99763.72;5030254;28;20394;-62
2022/12/14 10:52:53;;;;;;;22.27;12.63;;;;;;;-0.13;84.57;99759.44;5031893;28;20041;-60
2022/12/14 10:55:38;;;;;;;18.95;10.70;;;;;;;-0.15;85.00;99762.75;5028941;28;20037;-60
2022/12/14 10:58:04;;;;;;;24.48;12.93;;;;;;;-0.21;85.18;99768.59;5037608;28;20712;-61
2022/12/14 11:00:29;;;;;;;23.92;13.75;;;;;;;-0.20;84.81;99770.31;5035289;28;20124;-60
2022/12/14 11:02:56;;;;;;;24.48;12.35;;;;;;;-0.24;85.33;99775.28;5034404;28;20029;-60
2022/12/14 11:05:35;;;;;;;22.05;12.60;;;;;;;-0.24;85.93;99772.75;5033028;28;20037;-61
2022/12/14 11:08:01;;;;;;;26.58;12.45;;;;;;;-0.22;85.61;99771.13;5030870;28;20041;-60
2022/12/14 11:10:29;;;;;;;18.40;11.55;;;;;;;-0.21;85.27;99765.19;5043195;28;20094;-60
2022/12/14 11:12:59;;;;;;;19.40;10.38;;;;;;;-0.24;84.68;99757.50;5055290;28;20378;-60
2022/12/14 11:15:35;;;;;;;21.33;12.80;;;;;;;-0.22;84.73;99751.66;5052125;28;20036;-60
2022/12/14 11:18:15;;;;;;;18.23;10.75;;;;;;;-0.18;84.72;99758.47;5052516;28;20772;-60
2022/12/14 11:21:02;;;;;;;23.58;11.07;;;;;;;-0.18;84.32;99755.09;5028992;28;20099;-60
2022/12/14 11:23:43;;;;;;;25.48;11.95;;;;;;;-0.21;84.68;99760.09;5033089;28;20051;-61
2022/12/14 11:26:24;;;;;;;20.90;11.75;;;;;;;-0.21;84.62;99755.88;5050719;28;20036;-60
2022/12/14 11:28:55;;;;;;;23.83;11.90;;;;;;;-0.22;84.82;99760.97;5036372;28;20447;-60
2022/12/14 11:31:25;;;;;;;20.67;11.18;;;;;;;-0.30;84.62;99765.03;5034001;28;20043;-61
2022/12/14 11:33:53;;;;;;;19.00;10.30;;;;;;;-0.33;83.65;99765.00;5036641;28;20045;-60
2022/12/14 11:36:21;;;;;;;20.35;10.43;;;;;;;-0.41;84.07;99763.16;5045038;28;20032;-61
2022/12/14 11:39:12;;;;;;;19.33;10.93;;;;;;;-0.44;84.46;99764.75;5054515;28;20059;-61
2022/12/14 11:41:39;;;;;;;16.48;9.68;;;;;;;-0.42;84.57;99761.44;5036572;28;20044;-60
2022/12/14 11:44:17;;;;;;;17.80;10.23;;;;;;;-0.42;84.26;99760.56;5028182;28;20072;-60
2022/12/14 11:46:57;;;;;;;17.38;10.75;;;;;;;-0.36;84.80;99764.94;5032631;28;20128;-61
2022/12/14 11:49:23;;;;;;;18.88;10.30;;;;;;;-0.40;85.09;99753.84;5030763;28;20065;-61
2022/12/14 11:51:54;;;;;;;21.25;11.32;;;;;;;-0.38;85.46;99750.50;5032894;28;20124;-60
2022/12/14 11:54:19;;;;;;;24.92;13.15;;;;;;;-0.39;85.32;99748.78;5034591;28;20029;-61